sensor_id;sensor_type;location;lat;lon;timestamp;P1;durP1;ratioP1;P2;durP2;ratioP2
51824;SDS011;37879;52.986;6.282;2023-05-10T00:00:26;8.18;;;5.80;;
51824;SDS011;37879;52.986;6.282;2023-05-10T00:02:52;8.63;;;7.13;;
51824;SDS011;37879;52.986;6.282;2023-05-10T00:05:17;7.80;;;5.80;;
51824;SDS011;37879;52.986;6.282;2023-05-10T00:07:43;7.50;;;5.30;;
51824;SDS011;37879;52.986;6.282;2023-05-10T00:10:12;13.48;;;6.70;;
51824;SDS011;37879;52.986;6.282;2023-05-10T00:12:37;6.78;;;5.10;;
51824;SDS011;37879;52.986;6.282;2023-05-10T00:15:03;7.40;;;5.90;;
51824;SDS011;37879;52.986;6.282;2023-05-10T00:17:30;8.15;;;5.72;;
51824;SDS011;37879;52.986;6.282;2023-05-10T00:19:55;7.60;;;5.65;;
51824;SDS011;37879;52.986;6.282;2023-05-10T00:22:21;9.98;;;6.30;;
51824;SDS011;37879;52.986;6.282;2023-05-10T00:24:47;9.30;;;6.78;;
51824;SDS011;37879;52.986;6.282;2023-05-10T00:27:12;8.98;;;6.45;;
51824;SDS011;37879;52.986;6.282;2023-05-10T00:29:38;10.20;;;7.18;;
51824;SDS011;37879;52.986;6.282;2023-05-10T00:32:03;11.40;;;7.35;;
51824;SDS011;37879;52.986;6.282;2023-05-10T00:34:29;12.38;;;7.22;;
51824;SDS011;37879;52.986;6.282;2023-05-10T00:36:55;11.50;;;7.47;;
51824;SDS011;37879;52.986;6.282;2023-05-10T00:39:21;11.55;;;7.93;;
51824;SDS011;37879;52.986;6.282;2023-05-10T00:41:46;11.63;;;7.63;;
51824;SDS011;37879;52.986;6.282;2023-05-10T00:44:12;13.73;;;8.10;;
51824;SDS011;37879;52.986;6.282;2023-05-10T00:46:38;11.30;;;7.45;;
51824;SDS011;37879;52.986;6.282;2023-05-10T00:49:03;11.98;;;8.20;;
51824;SDS011;37879;52.986;6.282;2023-05-10T00:51:29;10.70;;;7.30;;
51824;SDS011;37879;52.986;6.282;2023-05-10T00:53:56;12.43;;;8.50;;
51824;SDS011;37879;52.986;6.282;2023-05-10T00:56:22;11.43;;;8.23;;
51824;SDS011;37879;52.986;6.282;2023-05-10T00:58:49;11.57;;;7.85;;
51824;SDS011;37879;52.986;6.282;2023-05-10T01:01:15;12.13;;;8.00;;
51824;SDS011;37879;52.986;6.282;2023-05-10T01:03:41;13.38;;;8.45;;
51824;SDS011;37879;52.986;6.282;2023-05-10T01:06:07;15.45;;;9.45;;
51824;SDS011;37879;52.986;6.282;2023-05-10T01:08:33;13.07;;;9.57;;
51824;SDS011;37879;52.986;6.282;2023-05-10T01:10:58;11.80;;;7.30;;
51824;SDS011;37879;52.986;6.282;2023-05-10T01:15:56;10.70;;;7.47;;
51824;SDS011;37879;52.986;6.282;2023-05-10T01:18:23;12.63;;;8.75;;
51824;SDS011;37879;52.986;6.282;2023-05-10T01:20:53;10.02;;;7.63;;
51824;SDS011;37879;52.986;6.282;2023-05-10T01:32:25;12.45;;;8.38;;
51824;SDS011;37879;52.986;6.282;2023-05-10T01:35:00;10.57;;;7.07;;
51824;SDS011;37879;52.986;6.282;2023-05-10T01:37:47;9.75;;;7.45;;
51824;SDS011;37879;52.986;6.282;2023-05-10T01:40:19;10.35;;;7.00;;
51824;SDS011;37879;52.986;6.282;2023-05-10T01:42:53;13.93;;;9.00;;
51824;SDS011;37879;52.986;6.282;2023-05-10T01:45:37;13.63;;;8.30;;
51824;SDS011;37879;52.986;6.282;2023-05-10T01:48:21;14.85;;;8.93;;
51824;SDS011;37879;52.986;6.282;2023-05-10T01:50:49;10.80;;;7.93;;
51824;SDS011;37879;52.986;6.282;2023-05-10T01:53:17;13.55;;;8.80;;
51824;SDS011;37879;52.986;6.282;2023-05-10T01:55:49;11.68;;;8.63;;
51824;SDS011;37879;52.986;6.282;2023-05-10T01:58:20;11.80;;;7.82;;
51824;SDS011;37879;52.986;6.282;2023-05-10T02:00:49;17.20;;;9.57;;
51824;SDS011;37879;52.986;6.282;2023-05-10T02:03:17;12.43;;;8.55;;
51824;SDS011;37879;52.986;6.282;2023-05-10T02:05:46;11.10;;;8.43;;
51824;SDS011;37879;52.986;6.282;2023-05-10T02:08:14;12.68;;;8.13;;
51824;SDS011;37879;52.986;6.282;2023-05-10T02:10:42;10.60;;;8.43;;
51824;SDS011;37879;52.986;6.282;2023-05-10T02:13:09;12.82;;;9.13;;
51824;SDS011;37879;52.986;6.282;2023-05-10T02:15:36;12.30;;;8.40;;
51824;SDS011;37879;52.986;6.282;2023-05-10T02:18:04;10.43;;;7.80;;
51824;SDS011;37879;52.986;6.282;2023-05-10T02:20:31;11.38;;;8.05;;
51824;SDS011;37879;52.986;6.282;2023-05-10T02:22:58;12.63;;;8.57;;
51824;SDS011;37879;52.986;6.282;2023-05-10T02:25:24;13.52;;;9.25;;
51824;SDS011;37879;52.986;6.282;2023-05-10T02:27:53;13.02;;;8.73;;
51824;SDS011;37879;52.986;6.282;2023-05-10T02:30:20;10.52;;;7.35;;
51824;SDS011;37879;52.986;6.282;2023-05-10T02:32:47;13.02;;;8.85;;
51824;SDS011;37879;52.986;6.282;2023-05-10T02:35:14;12.07;;;8.75;;
51824;SDS011;37879;52.986;6.282;2023-05-10T02:37:41;12.60;;;8.07;;
51824;SDS011;37879;52.986;6.282;2023-05-10T02:40:08;11.15;;;7.65;;
51824;SDS011;37879;52.986;6.282;2023-05-10T02:42:36;10.73;;;7.65;;
51824;SDS011;37879;52.986;6.282;2023-05-10T02:45:07;10.88;;;7.57;;
51824;SDS011;37879;52.986;6.282;2023-05-10T02:47:36;12.30;;;8.32;;
51824;SDS011;37879;52.986;6.282;2023-05-10T02:50:02;12.73;;;7.55;;
51824;SDS011;37879;52.986;6.282;2023-05-10T02:52:29;11.32;;;7.90;;
51824;SDS011;37879;52.986;6.282;2023-05-10T02:55:04;15.90;;;8.90;;
51824;SDS011;37879;52.986;6.282;2023-05-10T02:57:32;11.93;;;7.30;;
51824;SDS011;37879;52.986;6.282;2023-05-10T02:59:59;10.60;;;7.93;;
51824;SDS011;37879;52.986;6.282;2023-05-10T03:02:26;11.43;;;7.70;;
51824;SDS011;37879;52.986;6.282;2023-05-10T03:04:52;10.88;;;7.35;;
51824;SDS011;37879;52.986;6.282;2023-05-10T03:07:18;10.52;;;7.03;;
51824;SDS011;37879;52.986;6.282;2023-05-10T03:09:46;12.32;;;8.10;;
51824;SDS011;37879;52.986;6.282;2023-05-10T03:12:33;10.38;;;7.43;;
51824;SDS011;37879;52.986;6.282;2023-05-10T03:18:13;10.57;;;6.68;;
51824;SDS011;37879;52.986;6.282;2023-05-10T03:20:55;8.30;;;5.80;;
51824;SDS011;37879;52.986;6.282;2023-05-10T03:26:20;9.00;;;6.68;;
51824;SDS011;37879;52.986;6.282;2023-05-10T03:28:50;8.90;;;5.90;;
51824;SDS011;37879;52.986;6.282;2023-05-10T03:31:17;8.50;;;5.88;;
51824;SDS011;37879;52.986;6.282;2023-05-10T03:33:50;8.02;;;6.13;;
51824;SDS011;37879;52.986;6.282;2023-05-10T03:36:17;10.10;;;6.93;;
51824;SDS011;37879;52.986;6.282;2023-05-10T03:38:43;7.78;;;6.25;;
51824;SDS011;37879;52.986;6.282;2023-05-10T03:41:09;9.98;;;7.03;;
51824;SDS011;37879;52.986;6.282;2023-05-10T03:43:35;7.63;;;5.60;;
51824;SDS011;37879;52.986;6.282;2023-05-10T03:46:03;7.47;;;5.90;;
51824;SDS011;37879;52.986;6.282;2023-05-10T03:48:29;8.85;;;6.07;;
51824;SDS011;37879;52.986;6.282;2023-05-10T03:50:56;7.97;;;6.18;;
51824;SDS011;37879;52.986;6.282;2023-05-10T03:53:22;8.63;;;5.97;;
51824;SDS011;37879;52.986;6.282;2023-05-10T03:55:48;7.28;;;5.85;;
51824;SDS011;37879;52.986;6.282;2023-05-10T03:58:14;7.85;;;6.53;;
51824;SDS011;37879;52.986;6.282;2023-05-10T04:00:40;7.50;;;5.63;;
51824;SDS011;37879;52.986;6.282;2023-05-10T04:03:11;7.47;;;6.03;;
51824;SDS011;37879;52.986;6.282;2023-05-10T04:05:37;7.20;;;5.45;;
51824;SDS011;37879;52.986;6.282;2023-05-10T04:08:03;8.25;;;6.03;;
51824;SDS011;37879;52.986;6.282;2023-05-10T04:10:29;7.40;;;6.10;;
51824;SDS011;37879;52.986;6.282;2023-05-10T04:12:55;7.50;;;5.95;;
51824;SDS011;37879;52.986;6.282;2023-05-10T04:15:20;7.25;;;5.45;;
51824;SDS011;37879;52.986;6.282;2023-05-10T04:17:46;6.80;;;5.50;;
51824;SDS011;37879;52.986;6.282;2023-05-10T04:20:12;6.35;;;5.70;;
51824;SDS011;37879;52.986;6.282;2023-05-10T04:22:38;7.05;;;5.43;;
51824;SDS011;37879;52.986;6.282;2023-05-10T04:25:03;6.72;;;5.35;;
51824;SDS011;37879;52.986;6.282;2023-05-10T04:27:30;6.20;;;4.82;;
51824;SDS011;37879;52.986;6.282;2023-05-10T04:29:56;6.80;;;5.78;;
51824;SDS011;37879;52.986;6.282;2023-05-10T04:32:22;7.95;;;5.20;;
51824;SDS011;37879;52.986;6.282;2023-05-10T04:34:47;8.77;;;5.75;;
51824;SDS011;37879;52.986;6.282;2023-05-10T04:37:13;5.75;;;4.40;;
51824;SDS011;37879;52.986;6.282;2023-05-10T04:39:39;6.40;;;4.53;;
51824;SDS011;37879;52.986;6.282;2023-05-10T04:42:05;5.15;;;4.65;;
51824;SDS011;37879;52.986;6.282;2023-05-10T04:44:33;6.32;;;4.57;;
51824;SDS011;37879;52.986;6.282;2023-05-10T04:46:59;6.47;;;5.00;;
51824;SDS011;37879;52.986;6.282;2023-05-10T04:49:27;4.22;;;3.55;;
51824;SDS011;37879;52.986;6.282;2023-05-10T04:51:53;5.18;;;3.90;;
51824;SDS011;37879;52.986;6.282;2023-05-10T04:54:18;5.60;;;4.18;;
51824;SDS011;37879;52.986;6.282;2023-05-10T04:56:44;6.40;;;5.03;;
51824;SDS011;37879;52.986;6.282;2023-05-10T04:59:09;5.82;;;4.13;;
51824;SDS011;37879;52.986;6.282;2023-05-10T05:01:35;4.90;;;3.88;;
51824;SDS011;37879;52.986;6.282;2023-05-10T05:04:01;4.72;;;3.55;;
51824;SDS011;37879;52.986;6.282;2023-05-10T05:06:26;4.53;;;3.72;;
51824;SDS011;37879;52.986;6.282;2023-05-10T05:08:52;6.82;;;3.83;;
51824;SDS011;37879;52.986;6.282;2023-05-10T05:11:18;4.38;;;3.58;;
51824;SDS011;37879;52.986;6.282;2023-05-10T05:13:44;4.68;;;3.25;;
51824;SDS011;37879;52.986;6.282;2023-05-10T05:16:10;6.68;;;3.83;;
51824;SDS011;37879;52.986;6.282;2023-05-10T05:18:38;5.00;;;3.72;;
51824;SDS011;37879;52.986;6.282;2023-05-10T05:21:13;5.75;;;3.83;;
51824;SDS011;37879;52.986;6.282;2023-05-10T05:23:42;4.93;;;3.65;;
51824;SDS011;37879;52.986;6.282;2023-05-10T05:26:07;4.75;;;3.72;;
51824;SDS011;37879;52.986;6.282;2023-05-10T05:28:33;4.78;;;3.83;;
51824;SDS011;37879;52.986;6.282;2023-05-10T05:31:02;3.58;;;3.10;;
51824;SDS011;37879;52.986;6.282;2023-05-10T05:33:32;4.25;;;3.15;;
51824;SDS011;37879;52.986;6.282;2023-05-10T05:36:05;3.75;;;3.25;;
51824;SDS011;37879;52.986;6.282;2023-05-10T05:38:31;3.85;;;3.10;;
51824;SDS011;37879;52.986;6.282;2023-05-10T05:40:57;4.00;;;2.70;;
51824;SDS011;37879;52.986;6.282;2023-05-10T05:43:22;3.53;;;2.70;;
51824;SDS011;37879;52.986;6.282;2023-05-10T05:45:48;3.10;;;2.35;;
51824;SDS011;37879;52.986;6.282;2023-05-10T05:48:14;3.03;;;2.40;;
51824;SDS011;37879;52.986;6.282;2023-05-10T05:50:40;5.05;;;2.80;;
51824;SDS011;37879;52.986;6.282;2023-05-10T05:53:05;2.97;;;2.67;;
51824;SDS011;37879;52.986;6.282;2023-05-10T05:55:31;3.35;;;2.60;;
51824;SDS011;37879;52.986;6.282;2023-05-10T05:57:57;2.65;;;2.00;;
51824;SDS011;37879;52.986;6.282;2023-05-10T06:00:23;4.32;;;2.47;;
51824;SDS011;37879;52.986;6.282;2023-05-10T06:02:49;2.78;;;2.17;;
51824;SDS011;37879;52.986;6.282;2023-05-10T06:05:14;3.40;;;2.42;;
51824;SDS011;37879;52.986;6.282;2023-05-10T06:07:40;3.55;;;2.67;;
51824;SDS011;37879;52.986;6.282;2023-05-10T06:10:07;2.80;;;2.25;;
51824;SDS011;37879;52.986;6.282;2023-05-10T06:12:33;2.80;;;2.10;;
51824;SDS011;37879;52.986;6.282;2023-05-10T06:14:59;4.82;;;2.70;;
51824;SDS011;37879;52.986;6.282;2023-05-10T06:17:25;2.92;;;2.08;;
51824;SDS011;37879;52.986;6.282;2023-05-10T06:19:51;2.80;;;2.08;;
51824;SDS011;37879;52.986;6.282;2023-05-10T06:22:17;2.28;;;1.75;;
51824;SDS011;37879;52.986;6.282;2023-05-10T06:24:42;2.63;;;1.85;;
51824;SDS011;37879;52.986;6.282;2023-05-10T06:27:08;3.13;;;2.45;;
51824;SDS011;37879;52.986;6.282;2023-05-10T06:29:34;3.30;;;2.15;;
51824;SDS011;37879;52.986;6.282;2023-05-10T06:32:00;2.97;;;1.63;;
51824;SDS011;37879;52.986;6.282;2023-05-10T06:34:26;2.78;;;2.20;;
51824;SDS011;37879;52.986;6.282;2023-05-10T06:36:51;3.17;;;1.60;;
51824;SDS011;37879;52.986;6.282;2023-05-10T06:39:17;2.88;;;1.83;;
51824;SDS011;37879;52.986;6.282;2023-05-10T06:41:43;2.90;;;2.10;;
51824;SDS011;37879;52.986;6.282;2023-05-10T06:44:09;2.72;;;1.85;;
51824;SDS011;37879;52.986;6.282;2023-05-10T06:46:34;4.93;;;2.10;;
51824;SDS011;37879;52.986;6.282;2023-05-10T06:49:00;3.72;;;2.30;;
51824;SDS011;37879;52.986;6.282;2023-05-10T06:51:26;3.13;;;1.92;;
51824;SDS011;37879;52.986;6.282;2023-05-10T06:53:51;3.08;;;2.05;;
51824;SDS011;37879;52.986;6.282;2023-05-10T06:56:17;4.13;;;2.38;;
51824;SDS011;37879;52.986;6.282;2023-05-10T06:58:42;3.83;;;2.00;;
51824;SDS011;37879;52.986;6.282;2023-05-10T07:01:08;3.15;;;1.98;;
51824;SDS011;37879;52.986;6.282;2023-05-10T07:03:33;3.47;;;2.50;;
51824;SDS011;37879;52.986;6.282;2023-05-10T07:06:00;3.10;;;2.20;;
51824;SDS011;37879;52.986;6.282;2023-05-10T07:08:28;2.90;;;1.95;;
51824;SDS011;37879;52.986;6.282;2023-05-10T07:10:59;2.63;;;1.80;;
51824;SDS011;37879;52.986;6.282;2023-05-10T07:13:26;3.72;;;2.65;;
51824;SDS011;37879;52.986;6.282;2023-05-10T07:15:51;4.28;;;2.58;;
51824;SDS011;37879;52.986;6.282;2023-05-10T07:18:17;3.72;;;2.55;;
51824;SDS011;37879;52.986;6.282;2023-05-10T07:20:42;4.45;;;2.80;;
51824;SDS011;37879;52.986;6.282;2023-05-10T07:23:08;4.72;;;3.17;;
51824;SDS011;37879;52.986;6.282;2023-05-10T07:25:34;4.55;;;3.00;;
51824;SDS011;37879;52.986;6.282;2023-05-10T07:27:59;4.50;;;3.17;;
51824;SDS011;37879;52.986;6.282;2023-05-10T07:30:34;4.63;;;3.10;;
51824;SDS011;37879;52.986;6.282;2023-05-10T07:32:59;4.93;;;3.13;;
51824;SDS011;37879;52.986;6.282;2023-05-10T07:35:25;4.93;;;2.70;;
51824;SDS011;37879;52.986;6.282;2023-05-10T07:37:51;4.07;;;2.92;;
51824;SDS011;37879;52.986;6.282;2023-05-10T07:40:17;3.97;;;3.30;;
51824;SDS011;37879;52.986;6.282;2023-05-10T07:42:42;4.55;;;3.13;;
51824;SDS011;37879;52.986;6.282;2023-05-10T07:45:08;4.82;;;2.80;;
51824;SDS011;37879;52.986;6.282;2023-05-10T07:47:34;3.88;;;2.10;;
51824;SDS011;37879;52.986;6.282;2023-05-10T07:50:00;3.08;;;2.28;;
51824;SDS011;37879;52.986;6.282;2023-05-10T07:52:25;4.47;;;2.28;;
51824;SDS011;37879;52.986;6.282;2023-05-10T07:54:51;2.75;;;2.35;;
51824;SDS011;37879;52.986;6.282;2023-05-10T07:57:17;3.58;;;2.22;;
51824;SDS011;37879;52.986;6.282;2023-05-10T07:59:43;4.03;;;2.80;;
51824;SDS011;37879;52.986;6.282;2023-05-10T08:02:09;5.32;;;2.70;;
51824;SDS011;37879;52.986;6.282;2023-05-10T08:04:35;4.28;;;2.42;;
51824;SDS011;37879;52.986;6.282;2023-05-10T08:07:01;3.75;;;2.28;;
51824;SDS011;37879;52.986;6.282;2023-05-10T08:09:26;4.20;;;3.15;;
51824;SDS011;37879;52.986;6.282;2023-05-10T08:11:52;4.85;;;2.75;;
51824;SDS011;37879;52.986;6.282;2023-05-10T08:14:18;4.65;;;2.80;;
51824;SDS011;37879;52.986;6.282;2023-05-10T08:16:43;3.72;;;2.65;;
51824;SDS011;37879;52.986;6.282;2023-05-10T08:19:09;4.20;;;2.60;;
51824;SDS011;37879;52.986;6.282;2023-05-10T08:21:34;6.15;;;3.20;;
51824;SDS011;37879;52.986;6.282;2023-05-10T08:24:01;4.72;;;2.20;;
51824;SDS011;37879;52.986;6.282;2023-05-10T08:26:26;6.38;;;3.22;;
51824;SDS011;37879;52.986;6.282;2023-05-10T08:28:52;3.63;;;2.25;;
51824;SDS011;37879;52.986;6.282;2023-05-10T08:31:18;4.05;;;2.63;;
51824;SDS011;37879;52.986;6.282;2023-05-10T08:33:43;5.55;;;3.45;;
51824;SDS011;37879;52.986;6.282;2023-05-10T08:36:09;4.88;;;2.47;;
51824;SDS011;37879;52.986;6.282;2023-05-10T08:38:35;3.97;;;2.33;;
51824;SDS011;37879;52.986;6.282;2023-05-10T08:41:02;3.95;;;2.78;;
51824;SDS011;37879;52.986;6.282;2023-05-10T08:43:28;4.13;;;2.40;;
51824;SDS011;37879;52.986;6.282;2023-05-10T08:45:55;3.25;;;1.80;;
51824;SDS011;37879;52.986;6.282;2023-05-10T08:48:24;3.08;;;2.00;;
51824;SDS011;37879;52.986;6.282;2023-05-10T08:50:50;3.50;;;1.88;;
51824;SDS011;37879;52.986;6.282;2023-05-10T08:53:19;2.92;;;2.25;;
51824;SDS011;37879;52.986;6.282;2023-05-10T08:55:46;2.67;;;2.08;;
51824;SDS011;37879;52.986;6.282;2023-05-10T08:58:12;3.97;;;2.20;;
51824;SDS011;37879;52.986;6.282;2023-05-10T09:00:37;3.08;;;1.83;;
51824;SDS011;37879;52.986;6.282;2023-05-10T09:03:03;4.10;;;2.00;;
51824;SDS011;37879;52.986;6.282;2023-05-10T09:05:30;3.50;;;2.20;;
51824;SDS011;37879;52.986;6.282;2023-05-10T09:07:56;2.53;;;1.90;;
51824;SDS011;37879;52.986;6.282;2023-05-10T09:10:22;3.65;;;1.98;;
51824;SDS011;37879;52.986;6.282;2023-05-10T09:12:50;3.40;;;2.08;;
51824;SDS011;37879;52.986;6.282;2023-05-10T09:15:17;3.08;;;1.90;;
51824;SDS011;37879;52.986;6.282;2023-05-10T09:17:44;3.60;;;2.65;;
51824;SDS011;37879;52.986;6.282;2023-05-10T09:20:11;3.03;;;2.10;;
51824;SDS011;37879;52.986;6.282;2023-05-10T09:22:36;3.53;;;1.88;;
51824;SDS011;37879;52.986;6.282;2023-05-10T09:25:04;3.50;;;2.50;;
51824;SDS011;37879;52.986;6.282;2023-05-10T09:27:33;3.03;;;1.98;;
51824;SDS011;37879;52.986;6.282;2023-05-10T09:29:59;4.38;;;2.38;;
51824;SDS011;37879;52.986;6.282;2023-05-10T09:32:43;4.30;;;2.25;;
51824;SDS011;37879;52.986;6.282;2023-05-10T09:35:18;3.83;;;2.33;;
51824;SDS011;37879;52.986;6.282;2023-05-10T09:37:45;3.50;;;2.40;;
51824;SDS011;37879;52.986;6.282;2023-05-10T09:40:14;3.13;;;2.03;;
51824;SDS011;37879;52.986;6.282;2023-05-10T09:45:32;3.10;;;1.90;;
51824;SDS011;37879;52.986;6.282;2023-05-10T09:47:59;2.78;;;2.10;;
51824;SDS011;37879;52.986;6.282;2023-05-10T09:50:26;2.97;;;2.05;;
51824;SDS011;37879;52.986;6.282;2023-05-10T09:52:53;4.63;;;2.78;;
51824;SDS011;37879;52.986;6.282;2023-05-10T09:55:24;3.10;;;2.28;;
51824;SDS011;37879;52.986;6.282;2023-05-10T09:57:58;4.78;;;2.10;;
51824;SDS011;37879;52.986;6.282;2023-05-10T10:00:25;3.83;;;2.70;;
51824;SDS011;37879;52.986;6.282;2023-05-10T10:02:55;3.50;;;2.70;;
51824;SDS011;37879;52.986;6.282;2023-05-10T10:05:35;4.38;;;2.80;;
51824;SDS011;37879;52.986;6.282;2023-05-10T10:08:04;4.22;;;3.10;;
51824;SDS011;37879;52.986;6.282;2023-05-10T10:10:31;3.83;;;2.50;;
51824;SDS011;37879;52.986;6.282;2023-05-10T10:12:58;5.13;;;3.38;;
51824;SDS011;37879;52.986;6.282;2023-05-10T10:15:24;5.53;;;3.80;;
51824;SDS011;37879;52.986;6.282;2023-05-10T10:17:51;7.65;;;5.22;;
51824;SDS011;37879;52.986;6.282;2023-05-10T10:20:18;4.90;;;3.83;;
51824;SDS011;37879;52.986;6.282;2023-05-10T10:22:45;5.93;;;4.22;;
51824;SDS011;37879;52.986;6.282;2023-05-10T10:25:15;6.18;;;3.75;;
51824;SDS011;37879;52.986;6.282;2023-05-10T10:28:20;4.28;;;3.20;;
51824;SDS011;37879;52.986;6.282;2023-05-10T10:30:48;6.32;;;3.92;;
51824;SDS011;37879;52.986;6.282;2023-05-10T10:36:00;4.57;;;3.15;;
51824;SDS011;37879;52.986;6.282;2023-05-10T10:38:37;5.78;;;3.92;;
51824;SDS011;37879;52.986;6.282;2023-05-10T10:41:10;6.20;;;4.40;;
51824;SDS011;37879;52.986;6.282;2023-05-10T10:44:13;6.13;;;3.90;;
51824;SDS011;37879;52.986;6.282;2023-05-10T10:49:28;5.10;;;3.50;;
51824;SDS011;37879;52.986;6.282;2023-05-10T10:52:12;5.68;;;3.40;;
51824;SDS011;37879;52.986;6.282;2023-05-10T10:54:49;5.60;;;3.08;;
51824;SDS011;37879;52.986;6.282;2023-05-10T10:57:17;4.75;;;3.00;;
51824;SDS011;37879;52.986;6.282;2023-05-10T10:59:43;4.43;;;2.95;;
51824;SDS011;37879;52.986;6.282;2023-05-10T11:02:10;5.35;;;3.28;;
51824;SDS011;37879;52.986;6.282;2023-05-10T11:05:00;4.97;;;3.03;;
51824;SDS011;37879;52.986;6.282;2023-05-10T11:07:56;4.82;;;3.78;;
51824;SDS011;37879;52.986;6.282;2023-05-10T11:10:23;4.65;;;4.00;;
51824;SDS011;37879;52.986;6.282;2023-05-10T11:13:02;6.10;;;4.07;;
51824;SDS011;37879;52.986;6.282;2023-05-10T11:15:30;6.10;;;3.38;;
51824;SDS011;37879;52.986;6.282;2023-05-10T11:18:00;5.18;;;3.75;;
51824;SDS011;37879;52.986;6.282;2023-05-10T11:20:42;5.03;;;3.47;;
51824;SDS011;37879;52.986;6.282;2023-05-10T11:23:12;6.18;;;3.53;;
51824;SDS011;37879;52.986;6.282;2023-05-10T11:25:44;4.18;;;3.00;;
51824;SDS011;37879;52.986;6.282;2023-05-10T11:28:11;4.97;;;3.33;;
51824;SDS011;37879;52.986;6.282;2023-05-10T11:30:40;4.93;;;3.42;;
51824;SDS011;37879;52.986;6.282;2023-05-10T11:33:08;4.78;;;3.20;;
51824;SDS011;37879;52.986;6.282;2023-05-10T11:35:37;5.15;;;3.25;;
51824;SDS011;37879;52.986;6.282;2023-05-10T11:38:07;4.63;;;3.40;;
51824;SDS011;37879;52.986;6.282;2023-05-10T11:40:34;4.30;;;3.10;;
51824;SDS011;37879;52.986;6.282;2023-05-10T11:43:00;4.35;;;3.08;;
51824;SDS011;37879;52.986;6.282;2023-05-10T11:45:26;3.88;;;3.00;;
51824;SDS011;37879;52.986;6.282;2023-05-10T11:47:53;4.97;;;3.30;;
51824;SDS011;37879;52.986;6.282;2023-05-10T11:50:18;4.88;;;3.20;;
51824;SDS011;37879;52.986;6.282;2023-05-10T11:52:44;5.07;;;3.72;;
51824;SDS011;37879;52.986;6.282;2023-05-10T11:55:10;5.78;;;3.67;;
51824;SDS011;37879;52.986;6.282;2023-05-10T11:57:37;6.63;;;4.47;;
51824;SDS011;37879;52.986;6.282;2023-05-10T12:00:03;6.43;;;4.15;;
51824;SDS011;37879;52.986;6.282;2023-05-10T12:02:30;6.10;;;4.32;;
51824;SDS011;37879;52.986;6.282;2023-05-10T12:04:56;7.32;;;5.00;;
51824;SDS011;37879;52.986;6.282;2023-05-10T12:07:22;7.60;;;4.97;;
51824;SDS011;37879;52.986;6.282;2023-05-10T12:12:46;7.97;;;4.65;;
51824;SDS011;37879;52.986;6.282;2023-05-10T12:17:43;8.27;;;5.63;;
51824;SDS011;37879;52.986;6.282;2023-05-10T12:20:28;8.32;;;5.07;;
51824;SDS011;37879;52.986;6.282;2023-05-10T12:22:55;7.55;;;4.45;;
51824;SDS011;37879;52.986;6.282;2023-05-10T12:25:22;8.82;;;5.05;;
51824;SDS011;37879;52.986;6.282;2023-05-10T12:30:22;6.97;;;4.85;;
51824;SDS011;37879;52.986;6.282;2023-05-10T12:33:02;7.32;;;5.32;;
51824;SDS011;37879;52.986;6.282;2023-05-10T12:35:38;6.20;;;4.90;;
51824;SDS011;37879;52.986;6.282;2023-05-10T12:38:34;7.63;;;5.30;;
51824;SDS011;37879;52.986;6.282;2023-05-10T12:41:04;8.98;;;5.40;;
51824;SDS011;37879;52.986;6.282;2023-05-10T12:43:31;14.70;;;6.13;;
51824;SDS011;37879;52.986;6.282;2023-05-10T12:45:57;7.93;;;5.97;;
51824;SDS011;37879;52.986;6.282;2023-05-10T12:48:23;10.10;;;6.15;;
51824;SDS011;37879;52.986;6.282;2023-05-10T12:50:49;9.18;;;5.95;;
51824;SDS011;37879;52.986;6.282;2023-05-10T12:53:14;8.88;;;6.03;;
51824;SDS011;37879;52.986;6.282;2023-05-10T12:55:41;8.70;;;5.85;;
51824;SDS011;37879;52.986;6.282;2023-05-10T12:58:07;10.13;;;5.97;;
51824;SDS011;37879;52.986;6.282;2023-05-10T13:00:32;9.45;;;5.97;;
51824;SDS011;37879;52.986;6.282;2023-05-10T13:02:58;8.23;;;5.55;;
51824;SDS011;37879;52.986;6.282;2023-05-10T13:05:24;9.38;;;5.70;;
51824;SDS011;37879;52.986;6.282;2023-05-10T13:07:49;10.20;;;5.70;;
51824;SDS011;37879;52.986;6.282;2023-05-10T13:10:15;7.40;;;5.40;;
51824;SDS011;37879;52.986;6.282;2023-05-10T13:15:16;8.90;;;5.72;;
51824;SDS011;37879;52.986;6.282;2023-05-10T13:17:42;9.63;;;5.80;;
51824;SDS011;37879;52.986;6.282;2023-05-10T13:20:07;7.75;;;5.43;;
51824;SDS011;37879;52.986;6.282;2023-05-10T13:22:34;6.38;;;5.20;;
51824;SDS011;37879;52.986;6.282;2023-05-10T13:25:00;6.68;;;5.28;;
51824;SDS011;37879;52.986;6.282;2023-05-10T13:27:26;8.23;;;5.20;;
51824;SDS011;37879;52.986;6.282;2023-05-10T13:29:52;8.65;;;5.72;;
51824;SDS011;37879;52.986;6.282;2023-05-10T13:32:18;7.60;;;5.07;;
51824;SDS011;37879;52.986;6.282;2023-05-10T13:34:43;7.07;;;5.32;;
51824;SDS011;37879;52.986;6.282;2023-05-10T13:37:09;8.90;;;5.13;;
51824;SDS011;37879;52.986;6.282;2023-05-10T13:39:35;9.30;;;5.43;;
51824;SDS011;37879;52.986;6.282;2023-05-10T13:42:02;7.30;;;4.65;;
51824;SDS011;37879;52.986;6.282;2023-05-10T13:44:28;7.32;;;5.10;;
51824;SDS011;37879;52.986;6.282;2023-05-10T13:46:54;9.65;;;5.90;;
51824;SDS011;37879;52.986;6.282;2023-05-10T13:49:20;9.60;;;4.82;;
51824;SDS011;37879;52.986;6.282;2023-05-10T13:51:47;8.98;;;6.07;;
51824;SDS011;37879;52.986;6.282;2023-05-10T13:54:12;9.63;;;6.93;;
51824;SDS011;37879;52.986;6.282;2023-05-10T13:56:38;7.78;;;5.72;;
51824;SDS011;37879;52.986;6.282;2023-05-10T13:59:05;8.88;;;5.57;;
51824;SDS011;37879;52.986;6.282;2023-05-10T14:01:32;8.73;;;5.57;;
51824;SDS011;37879;52.986;6.282;2023-05-10T14:03:58;6.70;;;4.57;;
51824;SDS011;37879;52.986;6.282;2023-05-10T14:06:24;9.60;;;5.25;;
51824;SDS011;37879;52.986;6.282;2023-05-10T14:08:51;7.15;;;5.10;;
51824;SDS011;37879;52.986;6.282;2023-05-10T14:11:17;9.32;;;5.88;;
51824;SDS011;37879;52.986;6.282;2023-05-10T14:13:43;6.95;;;5.18;;
51824;SDS011;37879;52.986;6.282;2023-05-10T14:16:09;12.25;;;5.45;;
51824;SDS011;37879;52.986;6.282;2023-05-10T14:18:34;5.65;;;4.07;;
51824;SDS011;37879;52.986;6.282;2023-05-10T14:21:01;6.28;;;4.55;;
51824;SDS011;37879;52.986;6.282;2023-05-10T14:23:27;6.75;;;4.22;;
51824;SDS011;37879;52.986;6.282;2023-05-10T14:25:53;5.50;;;3.90;;
51824;SDS011;37879;52.986;6.282;2023-05-10T14:28:19;7.60;;;4.60;;
51824;SDS011;37879;52.986;6.282;2023-05-10T14:30:46;4.85;;;3.85;;
51824;SDS011;37879;52.986;6.282;2023-05-10T14:33:11;5.82;;;4.10;;
51824;SDS011;37879;52.986;6.282;2023-05-10T14:35:38;5.45;;;4.20;;
51824;SDS011;37879;52.986;6.282;2023-05-10T14:38:04;5.40;;;3.60;;
51824;SDS011;37879;52.986;6.282;2023-05-10T14:40:29;5.70;;;3.80;;
51824;SDS011;37879;52.986;6.282;2023-05-10T14:42:55;5.72;;;4.22;;
51824;SDS011;37879;52.986;6.282;2023-05-10T14:45:21;6.47;;;4.38;;
51824;SDS011;37879;52.986;6.282;2023-05-10T14:47:48;5.03;;;4.20;;
51824;SDS011;37879;52.986;6.282;2023-05-10T14:50:15;6.07;;;4.15;;
51824;SDS011;37879;52.986;6.282;2023-05-10T14:52:41;5.88;;;4.13;;
51824;SDS011;37879;52.986;6.282;2023-05-10T14:55:07;4.75;;;3.75;;
51824;SDS011;37879;52.986;6.282;2023-05-10T14:57:33;5.00;;;3.78;;
51824;SDS011;37879;52.986;6.282;2023-05-10T14:59:59;7.07;;;4.53;;
51824;SDS011;37879;52.986;6.282;2023-05-10T15:02:25;6.72;;;4.03;;
51824;SDS011;37879;52.986;6.282;2023-05-10T15:04:50;5.53;;;3.88;;
51824;SDS011;37879;52.986;6.282;2023-05-10T15:07:16;6.38;;;4.38;;
51824;SDS011;37879;52.986;6.282;2023-05-10T15:09:43;6.65;;;4.30;;
51824;SDS011;37879;52.986;6.282;2023-05-10T15:12:09;5.15;;;3.90;;
51824;SDS011;37879;52.986;6.282;2023-05-10T15:14:35;7.00;;;4.45;;
51824;SDS011;37879;52.986;6.282;2023-05-10T15:17:01;7.05;;;4.10;;
51824;SDS011;37879;52.986;6.282;2023-05-10T15:19:27;6.38;;;3.60;;
51824;SDS011;37879;52.986;6.282;2023-05-10T15:21:54;5.18;;;3.95;;
51824;SDS011;37879;52.986;6.282;2023-05-10T15:24:20;6.15;;;4.53;;